Gulf Bridge — A8JM5 — position and weather

sailwx.info

Track history (hours):
 
Tides and Currents Weather Stations Pressure Air Temp Water Temp Dewpoint Dewpoint Depression Visibility Wind Speed Wind Dir Waves Ship Positions

Gulf Bridge

Last reported at 2016-Feb-12 04:03 UTC. Time now 2016-Feb-12 18:16 UTC.
Position N 01°59' E 102°15'.

Length 213 m; beam 32.2 m; draft 11.5 m.

Type: Cargo ship. MMSI: 636091115.

Date/timePositionNaut miles runAvg speedWind from/ knotsBaromVisibWave heightAir tempDewpointWater temp
2016-Feb-12 04:03N 01°59' E 102°15'510.3
2016-Feb-12 03:33N 01°56' E 102°19'1010.2
2016-Feb-12 02:33N 01°52' E 102°28'1110.3
2016-Feb-12 01:28N 01°47' E 102°38'6412.6
2016-Feb-11 20:26N 01°13' E 103°32'1112.6
2016-Feb-11 19:33N 01°15' E 103°43'4 3.7
2016-Feb-11 18:29N 01°17' E 103°46'0 0.0
2016-Feb-11 17:27N 01°17' E 103°46'0 0.0
2016-Feb-11 16:33N 01°17' E 103°46'0 0.0
2016-Feb-11 15:33N 01°17' E 103°46'0 0.1
2016-Feb-11 14:33N 01°17' E 103°46'0 0.0
2016-Feb-11 13:34N 01°17' E 103°46'0 0.0
2016-Feb-11 12:33N 01°17' E 103°46'0 0.1
2016-Feb-11 11:33N 01°17' E 103°46'0 0.1
2016-Feb-11 10:33N 01°17' E 103°46'0 0.0
2016-Feb-11 09:34N 01°17' E 103°46'0 0.2
2016-Feb-11 08:34N 01°17' E 103°46'1 1.0
2016-Feb-11 07:33N 01°16' E 103°46'8 8.1
2016-Feb-11 06:33N 01°14' E 103°53'4 4.0
2016-Feb-11 05:33N 01°15' E 103°57'4 3.6
2016-Feb-11 04:33N 01°16' E 104°01'7 6.8
2016-Feb-11 03:30N 01°17' E 104°08'  
2016-Feb-03 17:33S 29°29' E 113°00'1312.2
2016-Feb-03 16:28S 29°41' E 113°05'1312.1
2016-Feb-03 15:22S 29°54' E 113°10'6012.4
2016-Feb-03 10:33S 30°50' E 113°33'1212.1
2016-Feb-03 09:33S 31°01' E 113°38'  
Track history (hours):
 
Tides and Currents Weather Stations Pressure Air Temp Water Temp Dewpoint Dewpoint Depression Visibility Wind Speed Wind Dir Waves Ship Positions

Gulf Bridge

Last reported at 2016-Feb-12 04:03 UTC. Time now 2016-Feb-12 18:16 UTC.
Position N 01°59' E 102°15'.

Length 213 m; beam 32.2 m; draft 11.5 m.

Type: Cargo ship. MMSI: 636091115.

Date/timePositionNaut miles runAvg speedWind from/ knotsBaromVisibWave heightAir tempDewpointWater temp
2016-Feb-12 04:03N 01°59' E 102°15'510.3
2016-Feb-12 03:33N 01°56' E 102°19'1010.2
2016-Feb-12 02:33N 01°52' E 102°28'1110.3
2016-Feb-12 01:28N 01°47' E 102°38'6412.6
2016-Feb-11 20:26N 01°13' E 103°32'1112.6
2016-Feb-11 19:33N 01°15' E 103°43'4 3.7
2016-Feb-11 18:29N 01°17' E 103°46'0 0.0
2016-Feb-11 17:27N 01°17' E 103°46'0 0.0
2016-Feb-11 16:33N 01°17' E 103°46'0 0.0
2016-Feb-11 15:33N 01°17' E 103°46'0 0.1
2016-Feb-11 14:33N 01°17' E 103°46'0 0.0
2016-Feb-11 13:34N 01°17' E 103°46'0 0.0
2016-Feb-11 12:33N 01°17' E 103°46'0 0.1
2016-Feb-11 11:33N 01°17' E 103°46'0 0.1
2016-Feb-11 10:33N 01°17' E 103°46'0 0.0
2016-Feb-11 09:34N 01°17' E 103°46'0 0.2
2016-Feb-11 08:34N 01°17' E 103°46'1 1.0
2016-Feb-11 07:33N 01°16' E 103°46'8 8.1
2016-Feb-11 06:33N 01°14' E 103°53'4 4.0
2016-Feb-11 05:33N 01°15' E 103°57'4 3.6
2016-Feb-11 04:33N 01°16' E 104°01'7 6.8
2016-Feb-11 03:30N 01°17' E 104°08'  
2016-Feb-03 17:33S 29°29' E 113°00'1312.2
2016-Feb-03 16:28S 29°41' E 113°05'1312.1
2016-Feb-03 15:22S 29°54' E 113°10'6012.4
2016-Feb-03 10:33S 30°50' E 113°33'1212.1
2016-Feb-03 09:33S 31°01' E 113°38'  

Dump ship's entire track history